Time;durP1;ratioP1;P1;durP2;ratioP2;P2;SDS_P1;SDS_P2;PMS_P1;PMS_P2;Temp;Humidity;BMP_temperature;BMP_pressure;BME280_temperature;BME280_humidity;BME280_pressure;Samples;Min_cycle;Max_cycle;Signal;HPM_P1;HPM_P2
2022/07/31 00:00:14;;;;;;;8.57;5.60;;;;;;;23.12;100.00;98769.31;5018545;28;20171;-87
2022/07/31 00:02:39;;;;;;;6.73;5.70;;;;;;;23.77;100.00;98853.47;5018080;28;20602;-87
2022/07/31 00:05:06;;;;;;;6.23;5.07;;;;;;;23.88;100.00;98855.00;5015545;28;20162;-87
2022/07/31 00:07:31;;;;;;;9.60;5.70;;;;;;;23.86;100.00;98863.66;5016276;28;20163;-87
2022/07/31 00:09:57;;;;;;;10.57;5.50;;;;;;;23.56;100.00;98882.28;5015388;28;20623;-87
2022/07/31 00:12:22;;;;;;;6.90;5.40;;;;;;;23.15;100.00;98885.50;5015359;28;20594;-87
2022/07/31 00:14:48;;;;;;;7.33;5.40;;;;;;;22.99;100.00;98884.84;5014520;28;20195;-87
2022/07/31 00:17:14;;;;;;;6.80;5.13;;;;;;;22.71;100.00;98829.34;4996996;28;20233;-87
2022/07/31 00:19:40;;;;;;;7.00;5.43;;;;;;;22.25;100.00;98774.88;5014582;28;20846;-87
2022/07/31 00:22:06;;;;;;;7.13;5.67;;;;;;;22.76;100.00;98874.88;5014660;28;20216;-87
2022/07/31 00:24:31;;;;;;;7.73;5.63;;;;;;;22.57;100.00;98857.03;5014542;28;20170;-87
2022/07/31 00:26:57;;;;;;;7.10;5.73;;;;;;;22.56;100.00;98881.97;5014492;28;20167;-87
2022/07/31 00:29:22;;;;;;;6.70;5.60;;;;;;;22.30;100.00;98896.91;5014941;28;20551;-87
2022/07/31 00:31:48;;;;;;;7.70;5.80;;;;;;;22.04;100.00;98893.75;5014286;28;20313;-86
2022/07/31 00:34:14;;;;;;;7.10;6.00;;;;;;;22.12;100.00;98889.38;5014063;28;20169;-86
2022/07/31 00:36:39;;;;;;;6.77;5.53;;;;;;;22.20;100.00;98834.25;5014164;28;20198;-87
2022/07/31 00:39:05;;;;;;;6.60;5.40;;;;;;;22.19;100.00;98836.88;5014711;28;20361;-87
2022/07/31 00:41:42;;;;;;;6.50;5.80;;;;;;;22.48;100.00;98881.22;5014357;28;20300;-87
2022/07/31 00:44:11;;;;;;;9.60;6.10;;;;;;;22.57;100.00;98881.09;5014535;28;20631;-85
2022/07/31 00:46:37;;;;;;;8.97;6.20;;;;;;;21.82;100.00;98745.31;5014783;28;20169;-86
2022/07/31 00:49:03;;;;;;;9.40;6.07;;;;;;;22.51;100.00;98868.28;5014341;28;20167;-87
2022/07/31 00:51:29;;;;;;;7.20;6.50;;;;;;;22.36;100.00;98852.97;5014363;28;20174;-87
2022/07/31 00:53:54;;;;;;;8.90;6.17;;;;;;;21.61;100.00;98726.69;5014379;28;20174;-86
2022/07/31 00:56:20;;;;;;;7.47;6.30;;;;;;;22.46;100.00;98872.66;5014148;28;20321;-86
2022/07/31 00:58:45;;;;;;;8.07;6.13;;;;;;;22.66;100.00;98877.59;5014737;28;20167;-87
2022/07/31 01:01:10;;;;;;;8.00;6.23;;;;;;;22.27;100.00;98824.75;5015998;28;20173;-86
2022/07/31 01:03:36;;;;;;;8.23;6.03;;;;;;;22.54;100.00;98880.28;5028192;28;20194;-87
2022/07/31 01:06:02;;;;;;;7.93;5.77;;;;;;;22.49;100.00;98877.78;5014585;28;20171;-87
2022/07/31 01:08:28;;;;;;;7.43;6.30;;;;;;;22.44;100.00;98889.88;4996317;28;20170;-87
2022/07/31 01:11:11;;;;;;;7.77;6.10;;;;;;;22.27;100.00;98897.81;5014139;28;20159;-87
2022/07/31 01:13:51;;;;;;;8.60;6.70;;;;;;;21.99;100.00;98895.53;5013936;28;20217;-87
2022/07/31 01:16:17;;;;;;;8.87;6.97;;;;;;;21.59;100.00;98839.19;5014168;28;20191;-87
2022/07/31 01:18:45;;;;;;;7.90;6.93;;;;;;;21.32;100.00;98777.63;5014138;28;20174;-87
2022/07/31 01:21:19;;;;;;;17.50;14.17;;;;;;;21.98;100.00;98896.38;5014305;28;20175;-87
2022/07/31 01:24:03;;;;;;;16.17;13.33;;;;;;;21.76;100.00;98900.84;5014447;28;20165;-87
2022/07/31 01:26:40;;;;;;;14.93;11.90;;;;;;;21.76;100.00;98904.28;5024887;28;20538;-87
2022/07/31 01:29:19;;;;;;;12.03;9.17;;;;;;;21.46;100.00;98857.34;5023578;28;20158;-88
2022/07/31 01:31:51;;;;;;;10.50;8.30;;;;;;;21.53;100.00;98906.22;5017690;28;20166;-88
2022/07/31 01:34:41;;;;;;;10.97;8.40;;;;;;;21.43;100.00;98898.56;5017240;28;20166;-86
2022/07/31 01:37:20;;;;;;;10.67;8.60;;;;;;;21.24;100.00;98897.84;5017051;28;20175;-87
2022/07/31 01:40:07;;;;;;;12.17;9.40;;;;;;;21.25;100.00;98898.72;5017026;28;20158;-87
2022/07/31 01:42:36;;;;;;;12.03;9.00;;;;;;;21.17;100.00;98891.03;5018254;28;20190;-87
2022/07/31 01:45:04;;;;;;;13.20;10.30;;;;;;;21.10;100.00;98871.34;5025228;28;20217;-87
2022/07/31 01:47:32;;;;;;;13.17;10.60;;;;;;;20.32;100.00;98747.50;5017667;28;20662;-87
2022/07/31 01:50:00;;;;;;;15.67;10.77;;;;;;;20.74;100.00;98853.56;5017421;28;20246;-87
2022/07/31 01:52:28;;;;;;;13.90;10.97;;;;;;;19.49;100.00;98628.81;5016935;28;20158;-87
2022/07/31 01:54:56;;;;;;;14.07;11.67;;;;;;;19.91;100.00;98690.28;5017026;28;20612;-87
2022/07/31 01:57:23;;;;;;;13.97;11.03;;;;;;;20.85;100.00;98869.78;4999709;28;20175;-87
2022/07/31 01:59:50;;;;;;;15.13;11.47;;;;;;;20.17;100.00;98747.53;5017021;28;20246;-87
2022/07/31 02:02:18;;;;;;;17.33;11.80;;;;;;;20.35;100.00;98798.88;5016982;28;20170;-87
2022/07/31 02:04:45;;;;;;;14.93;11.37;;;;;;;20.49;100.00;98822.78;5016248;28;20158;-87
2022/07/31 02:07:13;;;;;;;15.63;11.97;;;;;;;20.74;100.00;98889.56;5016676;28;20242;-87
2022/07/31 02:09:41;;;;;;;16.40;11.67;;;;;;;20.70;100.00;98886.16;5016872;28;20155;-87
2022/07/31 02:12:10;;;;;;;17.10;12.63;;;;;;;19.91;100.00;98728.81;5017402;28;20245;-87
2022/07/31 02:14:39;;;;;;;16.47;12.70;;;;;;;19.55;100.00;98690.44;5015619;28;20175;-87
2022/07/31 02:17:06;;;;;;;16.13;12.17;;;;;;;20.82;100.00;98880.91;5016753;28;20162;-87
2022/07/31 02:19:33;;;;;;;17.30;12.30;;;;;;;20.79;100.00;98877.53;5016477;28;20163;-85
2022/07/31 02:21:59;;;;;;;15.73;12.43;;;;;;;20.92;100.00;98892.88;4999456;28;20269;-87
2022/07/31 02:24:24;;;;;;;15.83;12.00;;;;;;;20.98;100.00;98892.00;5016469;28;20162;-87
2022/07/31 02:26:51;;;;;;;17.17;12.77;;;;;;;20.79;100.00;98828.66;5017195;28;20162;-88
2022/07/31 02:29:20;;;;;;;15.03;11.80;;;;;;;20.60;100.00;98845.91;5007154;28;20171;-87
2022/07/31 02:31:47;;;;;;;15.40;11.43;;;;;;;20.42;100.00;98787.69;5007643;28;20166;-88
2022/07/31 02:34:14;;;;;;;14.77;11.60;;;;;;;20.13;100.00;98768.97;5017765;28;20712;-88
2022/07/31 02:36:40;;;;;;;17.73;12.40;;;;;;;19.39;100.00;98616.00;5016300;28;20254;-87
2022/07/31 02:39:07;;;;;;;18.47;14.47;;;;;;;20.32;100.00;98773.19;5016503;28;20202;-87
2022/07/31 02:41:34;;;;;;;16.27;12.47;;;;;;;19.75;100.00;98686.06;5016536;28;20170;-87
2022/07/31 02:44:01;;;;;;;16.67;12.53;;;;;;;19.68;100.00;98659.56;5016223;28;20168;-87
2022/07/31 02:46:27;;;;;;;17.60;12.07;;;;;;;20.95;100.00;98885.16;5015851;28;20564;-87
2022/07/31 02:48:54;;;;;;;18.70;12.33;;;;;;;21.07;100.00;98879.09;5015783;28;20213;-86
2022/07/31 02:51:20;;;;;;;15.43;11.83;;;;;;;19.88;100.00;98713.41;5017241;28;20627;-87
2022/07/31 02:53:46;;;;;;;19.97;11.70;;;;;;;21.03;100.00;98890.25;5020357;28;20245;-87
2022/07/31 02:56:12;;;;;;;14.13;11.40;;;;;;;20.99;100.00;98891.13;5020988;28;20285;-88
2022/07/31 02:58:40;;;;;;;15.67;12.03;;;;;;;20.44;100.00;98834.81;5023900;28;20165;-87
2022/07/31 03:01:06;;;;;;;15.70;11.53;;;;;;;20.77;100.00;98884.38;5019369;28;20163;-87
2022/07/31 03:03:32;;;;;;;15.73;11.77;;;;;;;20.83;100.00;98884.34;5016825;28;20167;-87
2022/07/31 03:05:57;;;;;;;15.93;11.43;;;;;;;20.77;100.00;98892.09;5017872;28;20225;-87
2022/07/31 03:08:23;;;;;;;13.97;11.43;;;;;;;19.79;100.00;98709.16;5015636;28;20230;-87
2022/07/31 03:10:49;;;;;;;13.97;10.77;;;;;;;19.84;100.00;98733.09;5015857;28;20166;-87
2022/07/31 03:13:16;;;;;;;13.47;10.77;;;;;;;20.06;100.00;98753.56;5015901;28;20598;-87
2022/07/31 03:15:43;;;;;;;13.67;10.50;;;;;;;20.60;100.00;98833.06;5015563;28;20197;-87
2022/07/31 03:18:10;;;;;;;12.47;10.30;;;;;;;20.87;100.00;98892.06;5015531;28;20171;-87
2022/07/31 03:20:37;;;;;;;13.47;10.30;;;;;;;20.79;100.00;98893.81;5016417;28;20159;-87
2022/07/31 03:23:03;;;;;;;15.77;10.07;;;;;;;19.81;100.00;98706.56;5018317;28;20167;-87
2022/07/31 03:25:31;;;;;;;12.70;10.40;;;;;;;20.29;100.00;98811.78;5001799;28;20689;-87
2022/07/31 03:27:58;;;;;;;13.10;10.03;;;;;;;20.78;100.00;98906.69;5016328;28;20173;-87
2022/07/31 03:30:25;;;;;;;13.53;9.77;;;;;;;20.55;100.00;98827.91;4997718;28;20206;-88
2022/07/31 03:32:54;;;;;;;13.23;9.40;;;;;;;20.48;100.00;98820.25;5015622;28;20174;-87
2022/07/31 03:35:21;;;;;;;14.10;9.60;;;;;;;20.96;100.00;98883.41;5015352;28;20600;-88
2022/07/31 03:37:46;;;;;;;12.00;9.73;;;;;;;19.47;100.00;98649.38;5015822;28;20166;-88
2022/07/31 03:40:12;;;;;;;13.53;9.70;;;;;;;20.35;100.00;98821.16;5015206;28;20173;-87
2022/07/31 03:42:39;;;;;;;14.50;9.70;;;;;;;20.87;100.00;98891.22;5015683;28;20166;-87
2022/07/31 03:45:06;;;;;;;11.53;9.50;;;;;;;20.78;100.00;98880.94;5015033;28;20548;-87
2022/07/31 03:47:31;;;;;;;16.17;10.27;;;;;;;20.58;100.00;98827.91;5015531;28;20167;-88
2022/07/31 03:50:00;;;;;;;14.23;10.40;;;;;;;20.86;100.00;98910.06;5015026;28;20174;-87
2022/07/31 03:52:27;;;;;;;16.23;10.40;;;;;;;20.80;100.00;98903.22;4997753;28;20171;-87
2022/07/31 03:54:53;;;;;;;16.57;11.00;;;;;;;20.73;100.00;98905.84;5015822;28;20190;-88
2022/07/31 03:57:19;;;;;;;15.47;11.47;;;;;;;20.75;100.00;98896.41;5014978;28;20249;-87
2022/07/31 03:59:46;;;;;;;18.57;12.60;;;;;;;20.34;100.00;98846.03;5014671;28;20691;-87
2022/07/31 04:02:11;;;;;;;18.70;12.00;;;;;;;19.43;100.00;98674.19;5015371;28;20170;-87
2022/07/31 04:04:37;;;;;;;17.30;12.27;;;;;;;20.77;100.00;98884.38;5015179;28;20151;-88
2022/07/31 04:07:04;;;;;;;16.20;11.97;;;;;;;20.73;100.00;98857.84;4997141;28;20630;-85
2022/07/31 04:09:29;;;;;;;16.27;11.47;;;;;;;19.60;100.00;98673.28;4997790;28;20202;-86
2022/07/31 04:11:55;;;;;;;17.17;11.53;;;;;;;21.10;100.00;98902.22;5015119;28;20174;-86
2022/07/31 04:14:20;;;;;;;14.97;10.53;;;;;;;20.40;100.00;98780.84;5015069;28;20166;-87
2022/07/31 04:16:46;;;;;;;15.70;11.07;;;;;;;21.17;100.00;98896.19;5014611;28;20226;-87
2022/07/31 04:19:11;;;;;;;13.80;11.13;;;;;;;20.98;100.00;98871.41;5014725;28;20169;-86
2022/07/31 04:21:37;;;;;;;13.63;10.57;;;;;;;21.16;100.00;98891.91;5014889;28;20166;-87
2022/07/31 04:24:02;;;;;;;15.47;10.73;;;;;;;21.01;100.00;98866.25;5015063;28;20190;-87
2022/07/31 04:26:28;;;;;;;12.43;9.97;;;;;;;21.15;100.00;98892.78;5015026;28;20568;-87
2022/07/31 04:28:53;;;;;;;12.97;10.73;;;;;;;20.89;100.00;98830.28;5015155;28;20216;-87
2022/07/31 04:31:19;;;;;;;13.33;9.97;;;;;;;21.16;100.00;98850.72;5014800;28;20166;-86
2022/07/31 04:33:44;;;;;;;13.37;10.03;;;;;;;21.83;100.00;98888.78;5015361;28;20615;-87
2022/07/31 04:36:10;;;;;;;15.03;10.60;;;;;;;21.57;100.00;98866.69;4996906;28;20290;-87
2022/07/31 04:38:35;;;;;;;14.37;10.20;;;;;;;21.81;100.00;98886.19;5014770;28;20159;-87
2022/07/31 04:41:00;;;;;;;13.57;10.40;;;;;;;22.08;100.00;98895.44;5015239;28;20163;-87
2022/07/31 04:43:26;;;;;;;14.03;10.90;;;;;;;21.41;100.00;98803.28;5015428;28;20166;-87
2022/07/31 04:45:51;;;;;;;13.07;10.70;;;;;;;20.74;100.00;98697.44;5015310;28;20167;-88
2022/07/31 04:48:17;;;;;;;15.03;11.60;;;;;;;22.13;100.00;98904.84;5014649;28;20546;-87
2022/07/31 04:50:42;;;;;;;11.53;8.77;;;;;;;20.96;100.00;98710.97;5014837;28;20162;-87
2022/07/31 04:53:07;;;;;;;11.77;8.93;;;;;;;22.05;100.00;98859.38;5015263;28;20170;-88
2022/07/31 04:55:33;;;;;;;11.83;8.07;;;;;;;20.98;100.00;98696.41;5005942;28;20223;-87
2022/07/31 04:57:58;;;;;;;11.13;7.97;;;;;;;21.94;100.00;98831.13;5025621;28;20167;-87
2022/07/31 05:00:24;;;;;;;11.60;8.10;;;;;;;21.45;99.83;98717.38;5017283;28;20154;-88
2022/07/31 05:02:49;;;;;;;11.53;7.50;;;;;;;22.31;98.04;98811.78;5015654;28;20181;-87
2022/07/31 05:05:17;;;;;;;13.23;9.30;;;;;;;22.65;97.77;98915.44;5018229;28;20612;-87
2022/07/31 05:07:42;;;;;;;17.10;12.90;;;;;;;22.45;95.73;98815.91;5000974;28;20180;-88
2022/07/31 05:10:09;;;;;;;18.00;11.73;;;;;;;23.42;93.38;98914.38;5018658;28;20163;-88
2022/07/31 05:12:34;;;;;;;10.63;9.07;;;;;;;23.39;91.56;98908.41;5018220;28;20155;-87
2022/07/31 05:15:00;;;;;;;10.23;8.13;;;;;;;23.16;91.47;98918.19;5001006;28;20209;-88
2022/07/31 05:17:25;;;;;;;11.40;8.00;;;;;;;22.43;92.03;98815.94;5018810;28;20162;-88
2022/07/31 05:19:51;;;;;;;10.40;8.10;;;;;;;22.43;91.88;98791.84;5018596;28;20589;-88
2022/07/31 05:22:16;;;;;;;10.53;8.07;;;;;;;22.18;90.01;98706.22;5001201;28;20174;-88
2022/07/31 05:24:42;;;;;;;10.20;7.83;;;;;;;22.57;89.01;98771.88;5020262;28;20666;-88
2022/07/31 05:27:07;;;;;;;9.73;6.90;;;;;;;23.70;87.73;98901.88;5001051;28;20170;-87
2022/07/31 05:29:33;;;;;;;10.37;6.97;;;;;;;23.34;85.94;98855.91;5020327;28;20159;-86
2022/07/31 05:31:58;;;;;;;9.27;6.03;;;;;;;23.22;86.39;98835.44;5021337;28;20167;-88
2022/07/31 05:34:23;;;;;;;9.00;6.70;;;;;;;23.72;86.33;98894.06;5018592;28;20277;-88
2022/07/31 05:36:49;;;;;;;7.77;6.90;;;;;;;23.35;85.93;98831.78;4999988;28;20222;-87
2022/07/31 05:39:16;;;;;;;9.23;6.97;;;;;;;23.72;85.13;98838.06;5000447;28;20171;-87
2022/07/31 05:41:42;;;;;;;8.17;5.57;;;;;;;23.99;83.97;98883.22;5017751;28;20168;-87
2022/07/31 05:44:07;;;;;;;11.03;8.43;;;;;;;24.37;83.81;98898.91;5016885;28;20179;-88
2022/07/31 05:46:33;;;;;;;11.43;6.30;;;;;;;24.48;82.79;98885.75;5001541;28;20198;-88
2022/07/31 05:48:58;;;;;;;9.17;6.33;;;;;;;23.48;83.11;98746.34;5017813;28;20175;-87
2022/07/31 05:51:23;;;;;;;9.00;6.03;;;;;;;24.46;82.85;98896.16;5001008;28;20174;-87
2022/07/31 05:53:49;;;;;;;9.13;6.40;;;;;;;24.35;80.94;98819.63;5000554;28;20174;-87
2022/07/31 05:56:14;;;;;;;7.77;5.43;;;;;;;24.60;80.34;98883.78;5018152;28;20194;-88
2022/07/31 05:58:40;;;;;;;7.87;5.57;;;;;;;24.50;80.80;98890.00;5017643;28;20546;-87
2022/07/31 06:01:05;;;;;;;8.83;5.90;;;;;;;23.63;79.76;98718.47;5017675;28;20642;-87
2022/07/31 06:03:34;;;;;;;7.97;5.30;;;;;;;24.05;80.70;98780.53;5017471;28;20205;-87
2022/07/31 06:06:01;;;;;;;5.70;5.10;;;;;;;24.99;78.52;98894.19;5017063;28;20642;-88
2022/07/31 06:08:27;;;;;;;6.10;5.17;;;;;;;24.22;78.79;98802.66;5017125;28;20171;-87
2022/07/31 06:10:53;;;;;;;5.83;5.10;;;;;;;24.88;78.35;98889.25;5017132;28;20614;-87
2022/07/31 06:13:23;;;;;;;7.77;5.10;;;;;;;24.61;77.29;98836.28;5016949;28;20171;-87
2022/07/31 06:15:48;;;;;;;6.50;5.30;;;;;;;24.95;78.20;98882.19;5017122;28;20260;-87
2022/07/31 06:18:14;;;;;;;7.27;5.43;;;;;;;24.45;79.53;98826.28;5017319;28;20162;-88
2022/07/31 06:20:40;;;;;;;6.50;5.20;;;;;;;24.54;79.02;98797.63;5017070;28;20175;-87
2022/07/31 06:23:05;;;;;;;6.60;5.40;;;;;;;24.51;77.03;98725.22;5017414;28;20635;-88
2022/07/31 06:25:31;;;;;;;6.83;5.97;;;;;;;25.10;77.01;98887.91;5016747;28;20545;-88
2022/07/31 06:27:56;;;;;;;6.67;5.80;;;;;;;24.69;76.40;98806.81;5017202;28;20174;-88
2022/07/31 06:30:22;;;;;;;7.73;6.20;;;;;;;24.27;74.80;98702.50;5017124;28;20201;-87
2022/07/31 06:32:47;;;;;;;8.13;6.47;;;;;;;25.10;75.93;98849.03;5016373;28;20170;-86
2022/07/31 06:35:13;;;;;;;8.13;6.80;;;;;;;25.44;75.85;98897.44;5029794;28;20267;-86
2022/07/31 06:37:38;;;;;;;8.77;6.23;;;;;;;25.61;75.33;98882.38;5014997;28;20665;-86
2022/07/31 06:40:04;;;;;;;9.33;6.47;;;;;;;25.47;74.96;98855.94;5033623;28;20243;-88
2022/07/31 06:42:30;;;;;;;8.03;7.00;;;;;;;24.11;75.41;98620.97;5036256;28;20264;-88
2022/07/31 06:44:55;;;;;;;7.70;6.90;;;;;;;25.87;75.29;98890.34;5020042;28;20170;-88
2022/07/31 06:47:24;;;;;;;8.93;6.90;;;;;;;25.92;75.17;98891.06;5034548;28;20260;-88
2022/07/31 06:49:50;;;;;;;9.07;7.77;;;;;;;26.09;74.46;98888.91;5038595;28;20198;-87
2022/07/31 06:52:16;;;;;;;10.57;8.17;;;;;;;25.67;74.05;98812.19;5038802;28;20228;-88
2022/07/31 06:54:43;;;;;;;8.50;7.60;;;;;;;26.03;72.25;98857.91;5019418;28;20186;-87
2022/07/31 06:57:09;;;;;;;10.33;7.63;;;;;;;26.10;73.96;98892.31;5020015;28;20634;-88
2022/07/31 06:59:34;;;;;;;11.60;7.47;;;;;;;25.71;72.94;98793.09;5019092;28;20263;-88
2022/07/31 07:01:59;;;;;;;9.30;7.93;;;;;;;26.10;73.15;98900.09;5019476;28;20197;-88
2022/07/31 07:04:25;;;;;;;10.10;7.87;;;;;;;24.74;73.32;98653.06;5038823;28;20189;-88
2022/07/31 07:06:50;;;;;;;10.80;8.67;;;;;;;25.22;72.95;98693.25;5018923;28;20253;-89
2022/07/31 07:09:16;;;;;;;9.67;8.23;;;;;;;25.28;74.18;98775.16;5036515;28;20193;-88
2022/07/31 07:11:41;;;;;;;10.33;9.23;;;;;;;26.26;74.99;98898.84;5036521;28;20192;-87
2022/07/31 07:14:06;;;;;;;10.73;8.70;;;;;;;26.18;75.77;98899.03;5036635;28;20193;-88
2022/07/31 07:16:32;;;;;;;11.17;8.60;;;;;;;26.41;75.22;98888.03;5036207;28;20190;-88
2022/07/31 07:18:57;;;;;;;11.13;8.47;;;;;;;26.15;75.95;98882.72;5037011;28;20205;-88
2022/07/31 07:21:23;;;;;;;12.40;9.67;;;;;;;26.19;76.37;98899.91;5020129;28;20308;-88
2022/07/31 07:23:48;;;;;;;11.93;10.40;;;;;;;25.51;76.53;98766.84;5038918;28;20166;-87
2022/07/31 07:26:13;;;;;;;10.83;9.63;;;;;;;25.32;76.02;98687.84;5039907;28;20241;-88
2022/07/31 07:28:39;;;;;;;12.87;10.07;;;;;;;25.94;75.72;98829.63;5038424;28;20162;-89
2022/07/31 07:31:05;;;;;;;11.93;9.93;;;;;;;25.56;74.68;98694.97;5040915;28;20169;-88
2022/07/31 07:33:31;;;;;;;12.90;9.93;;;;;;;26.94;74.39;98848.38;5038020;28;20646;-88
2022/07/31 07:35:57;;;;;;;12.30;10.95;;;;;;;27.11;74.68;98884.22;5035018;28;20629;-88
2022/07/31 07:38:24;;;;;;;12.18;10.82;;;;;;;27.48;73.13;98874.38;5035394;28;20205;-88
2022/07/31 07:40:50;;;;;;;11.20;10.10;;;;;;;26.91;73.98;98845.00;5036830;28;20171;-87
2022/07/31 07:43:16;;;;;;;12.02;10.38;;;;;;;27.11;72.73;98787.22;5037239;28;20171;-88
2022/07/31 07:45:42;;;;;;;11.48;10.15;;;;;;;27.72;71.94;98890.06;5036840;28;20155;-88
2022/07/31 07:48:07;;;;;;;13.70;9.95;;;;;;;26.94;72.22;98759.19;5034902;28;20545;-88
2022/07/31 07:50:33;;;;;;;13.65;10.05;;;;;;;27.36;71.58;98855.72;5035453;28;20187;-88
2022/07/31 07:52:59;;;;;;;14.45;10.40;;;;;;;26.71;71.37;98678.50;5036469;28;20255;-88
2022/07/31 07:55:25;;;;;;;13.10;10.00;;;;;;;27.27;72.34;98830.00;5036197;28;20195;-88
2022/07/31 07:57:50;;;;;;;11.30;10.20;;;;;;;27.60;71.10;98815.91;5037335;28;20157;-89
2022/07/31 08:00:16;;;;;;;12.35;9.68;;;;;;;26.63;70.67;98676.16;5035428;28;20191;-87
2022/07/31 08:02:43;;;;;;;11.10;9.90;;;;;;;27.61;70.09;98834.97;5017488;28;20652;-87
2022/07/31 08:05:09;;;;;;;12.73;10.05;;;;;;;27.83;71.66;98877.53;5035945;28;20213;-88
2022/07/31 08:07:37;;;;;;;11.48;10.27;;;;;;;26.76;70.94;98703.44;5035629;28;20164;-88
2022/07/31 08:10:04;;;;;;;12.68;10.27;;;;;;;27.73;71.37;98839.72;5035270;28;20166;-87
2022/07/31 08:12:30;;;;;;;10.77;9.55;;;;;;;27.73;71.67;98865.75;5036215;28;20200;-88
2022/07/31 08:14:56;;;;;;;12.02;10.00;;;;;;;27.94;69.60;98828.56;5035880;28;20161;-88
2022/07/31 08:17:21;;;;;;;16.23;10.10;;;;;;;28.08;68.21;98868.00;5036392;28;20170;-88
2022/07/31 08:19:47;;;;;;;12.52;9.90;;;;;;;27.84;68.70;98869.69;5035143;28;20165;-86
2022/07/31 08:22:13;;;;;;;12.45;10.05;;;;;;;28.74;67.53;98877.75;5035427;28;20618;-88
2022/07/31 08:24:39;;;;;;;11.20;9.95;;;;;;;28.73;67.11;98834.38;5035192;28;20200;-88
2022/07/31 08:27:23;;;;;;;11.73;10.27;;;;;;;29.02;65.58;98867.09;5018212;28;20729;-89
2022/07/31 08:29:49;;;;;;;10.90;9.07;;;;;;;28.71;64.86;98869.19;5035019;28;20541;-87
2022/07/31 08:32:16;;;;;;;11.27;9.40;;;;;;;29.03;63.52;98827.09;5034983;28;20252;-88
2022/07/31 08:34:41;;;;;;;11.82;9.98;;;;;;;27.92;64.75;98661.25;5037688;28;20300;-88
2022/07/31 08:37:07;;;;;;;10.75;9.40;;;;;;;26.62;66.12;98577.53;5021195;28;20211;-87
2022/07/31 08:39:33;;;;;;;11.50;10.07;;;;;;;28.68;66.50;98876.22;5038818;28;20172;-88
2022/07/31 08:42:02;;;;;;;11.40;10.20;;;;;;;28.39;65.03;98669.84;5040559;28;20171;-88
2022/07/31 08:44:27;;;;;;;12.38;11.07;;;;;;;29.16;65.15;98839.59;5044315;28;20190;-88
2022/07/31 08:46:55;;;;;;;12.32;10.13;;;;;;;29.42;63.50;98866.41;5041068;28;20204;-87
2022/07/31 08:49:33;;;;;;;11.68;10.15;;;;;;;29.30;63.66;98869.50;5038141;28;20165;-88
2022/07/31 08:52:01;;;;;;;10.88;9.70;;;;;;;29.05;63.27;98754.88;5021065;28;20171;-88
2022/07/31 08:54:27;;;;;;;11.45;9.90;;;;;;;29.10;62.70;98786.81;5039387;28;20170;-88
2022/07/31 08:56:52;;;;;;;11.50;10.40;;;;;;;28.73;63.14;98769.22;5038891;28;20196;-89
2022/07/31 08:59:18;;;;;;;11.90;10.70;;;;;;;28.18;63.26;98619.47;5022594;28;20174;-89
2022/07/31 09:01:44;;;;;;;11.43;9.80;;;;;;;29.46;62.21;98860.13;5021339;28;20169;-89
2022/07/31 09:04:10;;;;;;;11.75;10.52;;;;;;;29.64;61.14;98831.50;5039377;28;20220;-89
2022/07/31 09:06:36;;;;;;;11.95;10.52;;;;;;;28.85;60.07;98624.53;5039311;28;20249;-87
2022/07/31 09:09:03;;;;;;;12.90;11.20;;;;;;;30.00;61.27;98847.38;5021683;28;20175;-87
2022/07/31 09:11:29;;;;;;;12.73;11.43;;;;;;;30.06;62.17;98854.94;5040531;28;20634;-88
2022/07/31 09:14:00;;;;;;;13.15;11.07;;;;;;;30.58;61.53;98848.25;5039104;28;20191;-88
2022/07/31 09:16:26;;;;;;;12.85;11.25;;;;;;;30.76;59.68;98802.13;5038935;28;20209;-87
2022/07/31 09:18:59;;;;;;;12.20;11.00;;;;;;;30.92;58.30;98715.06;5021091;28;20629;-88
2022/07/31 09:21:25;;;;;;;12.65;10.73;;;;;;;30.48;58.97;98744.25;5039403;28;20172;-88
2022/07/31 09:23:53;;;;;;;13.18;10.90;;;;;;;29.93;61.03;98812.03;5037785;28;20180;-88
2022/07/31 09:26:19;;;;;;;12.00;10.80;;;;;;;30.22;59.65;98852.50;5038168;28;20153;-89
2022/07/31 09:28:49;;;;;;;10.93;9.82;;;;;;;29.92;59.93;98833.81;5020443;28;20650;-88
2022/07/31 09:31:15;;;;;;;11.48;9.38;;;;;;;29.50;59.98;98776.44;5037128;28;20632;-87
2022/07/31 09:33:45;;;;;;;11.13;9.48;;;;;;;29.92;59.43;98791.19;5039333;28;20168;-87
2022/07/31 09:36:11;;;;;;;11.60;10.40;;;;;;;29.70;57.92;98666.84;5022497;28;20228;-88
2022/07/31 09:38:39;;;;;;;12.15;9.60;;;;;;;30.67;57.62;98829.53;5037614;28;20177;-87
2022/07/31 09:41:09;;;;;;;11.25;9.30;;;;;;;30.97;56.34;98824.66;5021806;28;20220;-88
2022/07/31 09:43:35;;;;;;;9.90;8.90;;;;;;;30.34;56.75;98804.94;5037238;28;20166;-88
2022/07/31 09:46:01;;;;;;;9.88;8.88;;;;;;;30.13;56.39;98694.47;5037585;28;20251;-88
2022/07/31 09:48:26;;;;;;;9.38;8.38;;;;;;;31.26;56.05;98828.50;5036797;28;20169;-88
2022/07/31 09:51:04;;;;;;;10.18;9.13;;;;;;;30.99;55.72;98824.59;5037559;28;20176;-88
2022/07/31 09:53:59;;;;;;;11.20;9.07;;;;;;;31.04;54.89;98815.59;5037775;28;20180;-89
2022/07/31 09:56:31;;;;;;;8.88;7.97;;;;;;;30.04;54.38;98665.31;4977036;28;20297;-89
2022/07/31 09:58:57;;;;;;;8.90;7.75;;;;;;;30.26;54.70;98801.84;4976671;28;20223;-89
2022/07/31 10:01:24;;;;;;;8.90;7.90;;;;;;;29.97;53.78;98669.16;4976213;28;20206;-88
2022/07/31 10:03:52;;;;;;;9.35;7.80;;;;;;;30.42;53.04;98781.09;4960718;28;20182;-88
2022/07/31 10:06:19;;;;;;;8.07;7.28;;;;;;;31.00;53.42;98810.59;4962511;28;20664;-88
2022/07/31 10:08:45;;;;;;;9.10;7.90;;;;;;;31.39;52.35;98790.31;4960446;28;20576;-89
2022/07/31 10:11:13;;;;;;;8.48;7.60;;;;;;;30.39;52.20;98591.38;4960169;28;20261;-89
2022/07/31 10:13:44;;;;;;;12.23;10.30;;;;;;;32.00;50.38;98788.91;4963476;28;20222;-88
2022/07/31 10:16:10;;;;;;;7.18;6.35;;;;;;;30.99;51.63;98801.88;4961452;28;20199;-89
2022/07/31 10:18:37;;;;;;;7.45;6.72;;;;;;;31.21;51.75;98784.22;4976018;28;20180;-90
2022/07/31 10:21:05;;;;;;;7.07;6.38;;;;;;;30.15;50.75;98622.13;4976396;28;20250;-88
2022/07/31 10:23:33;;;;;;;7.40;6.70;;;;;;;31.21;50.80;98788.59;4975859;28;20672;-88
2022/07/31 10:26:00;;;;;;;7.47;6.18;;;;;;;31.42;48.60;98784.94;4960119;28;20248;-88
2022/07/31 10:28:28;;;;;;;7.05;6.35;;;;;;;31.73;48.64;98785.06;4977496;28;20580;-87
2022/07/31 10:30:55;;;;;;;7.18;5.78;;;;;;;32.09;46.80;98791.03;4959945;28;20318;-89
2022/07/31 10:33:20;;;;;;;6.35;5.75;;;;;;;31.58;48.50;98785.03;5020946;28;20194;-89
2022/07/31 10:36:18;;;;;;;6.72;5.95;;;;;;;31.71;47.85;98773.00;5019352;28;20225;-89
2022/07/31 10:38:47;;;;;;;6.78;6.18;;;;;;;32.06;48.20;98775.47;4978984;28;20671;-88
2022/07/31 10:41:36;;;;;;;6.85;5.85;;;;;;;32.31;47.36;98780.25;4962409;28;20229;-89
2022/07/31 10:44:31;;;;;;;7.82;6.53;;;;;;;31.25;47.79;98601.81;4976044;28;20207;-88
2022/07/31 10:46:57;;;;;;;7.07;5.82;;;;;;;31.45;47.75;98706.28;4918279;29;20193;-89
2022/07/31 10:49:42;;;;;;;7.72;6.65;;;;;;;31.62;48.91;98757.78;4917955;29;20188;-89
2022/07/31 10:52:08;;;;;;;10.88;8.18;;;;;;;32.33;49.01;98774.94;4918140;29;20196;-89
2022/07/31 10:54:41;;;;;;;7.82;6.90;;;;;;;32.60;48.03;98776.06;4917988;29;20180;-89
2022/07/31 10:57:07;;;;;;;28.63;19.45;;;;;;;32.67;46.98;98738.06;4918094;29;20204;-89
2022/07/31 10:59:32;;;;;;;21.60;15.82;;;;;;;32.56;47.07;98766.66;4918128;29;20249;-88
2022/07/31 11:01:58;;;;;;;52.05;36.33;;;;;;;32.30;46.90;98675.53;4918196;29;20190;-89
2022/07/31 11:04:30;;;;;;;7.05;6.35;;;;;;;31.02;48.39;98607.38;4901934;29;20194;-88
2022/07/31 11:06:57;;;;;;;24.15;17.70;;;;;;;31.72;47.23;98649.88;4919506;29;20194;-89
2022/07/31 11:09:24;;;;;;;7.35;6.65;;;;;;;32.29;46.61;98687.78;4917642;29;20194;-89
2022/07/31 11:11:50;;;;;;;38.05;28.20;;;;;;;32.93;45.80;98726.13;4901059;29;20200;-90
2022/07/31 11:14:15;;;;;;;15.23;10.77;;;;;;;32.86;45.17;98688.88;4920282;29;20197;-89
2022/07/31 11:16:54;;;;;;;5.57;4.95;;;;;;;32.34;43.13;98656.91;4936568;29;20217;-89
2022/07/31 11:19:20;;;;;;;5.60;5.10;;;;;;;32.45;43.64;98704.34;4937936;29;20228;-88
2022/07/31 11:21:46;;;;;;;6.22;5.47;;;;;;;33.14;43.37;98762.47;4939226;29;20270;-90